Time;durP1;ratioP1;P1;durP2;ratioP2;P2;SDS_P1;SDS_P2;PMS_P1;PMS_P2;Temp;Humidity;BMP_temperature;BMP_pressure;BME280_temperature;BME280_humidity;BME280_pressure;Samples;Min_cycle;Max_cycle;Signal;HPM_P1;HPM_P2
2022/05/30 00:01:24;;;;;;;;;;;;;;;9.27;100.00;101443.22;5013416;28;19927;-34
2022/05/30 00:03:53;;;;;;;;;;;;;;;9.28;100.00;101435.69;5013566;28;19922;-32
2022/05/30 00:06:21;;;;;;;;;;;;;;;9.29;100.00;101434.59;5014452;28;19933;-34
2022/05/30 00:08:50;;;;;;;;;;;;;;;9.27;100.00;101436.81;5014207;28;20608;-28
2022/05/30 00:11:18;;;;;;;;;;;;;;;9.27;100.00;101439.59;5013365;28;19921;-30
2022/05/30 00:13:46;;;;;;;;;;;;;;;9.24;100.00;101434.56;5013794;28;20397;-34
2022/05/30 00:16:15;;;;;;;;;;;;;;;9.19;100.00;101435.41;5014391;28;19922;-32
2022/05/30 00:18:45;;;;;;;;;;;;;;;9.16;100.00;101430.41;5013510;28;19921;-34
2022/05/30 00:21:13;;;;;;;;;;;;;;;9.11;100.00;101433.19;5014339;28;19921;-36
2022/05/30 00:23:42;;;;;;;;;;;;;;;9.06;100.00;101430.38;5013448;28;19928;-34
2022/05/30 00:26:10;;;;;;;;;;;;;;;9.02;100.00;101434.81;5013890;28;19929;-34
2022/05/30 00:28:37;;;;;;;;;;;;;;;8.98;100.00;101423.41;5014147;28;19940;-33
2022/05/30 00:31:08;;;;;;;;;;;;;;;8.94;100.00;101425.06;5013424;28;19925;-31
2022/05/30 00:33:36;;;;;;;;;;;;;;;8.91;100.00;101428.41;5013896;28;19925;-36
2022/05/30 00:36:05;;;;;;;;;;;;;;;8.87;100.00;101415.28;5012555;28;19921;-41
2022/05/30 00:38:33;;;;;;;;;;;;;;;8.84;100.00;101418.63;5011870;28;19922;-36
2022/05/30 00:41:01;;;;;;;;;;;;;;;8.82;100.00;101418.06;5013845;28;19956;-39
2022/05/30 00:43:30;;;;;;;;;;;;;;;8.79;100.00;101418.63;5012388;28;20588;-32
2022/05/30 00:45:59;;;;;;;;;;;;;;;8.76;100.00;101411.66;5012936;28;19928;-33
2022/05/30 00:48:28;;;;;;;;;;;;;;;8.74;100.00;101415.81;5013505;28;19947;-29
2022/05/30 00:50:58;;;;;;;;;;;;;;;8.72;100.00;101418.03;5013641;28;19925;-38
2022/05/30 00:53:27;;;;;;;;;;;;;;;8.68;100.00;101409.41;5012589;28;19956;-34
2022/05/30 00:55:56;;;;;;;;;;;;;;;8.67;100.00;101421.63;5012270;28;19964;-40
2022/05/30 00:58:27;;;;;;;;;;;;;;;8.66;100.00;101421.91;5013515;28;19928;-40
2022/05/30 01:00:55;;;;;;;;;;;;;;;8.64;100.00;101417.44;5012611;28;19931;-33
2022/05/30 01:08:55;;;;;;;;;;;;;;;8.67;100.00;101418.03;5028427;28;19925;-32
2022/05/30 01:11:22;;;;;;;;;;;;;;;8.67;100.00;101406.88;5013102;28;20020;-35
2022/05/30 01:13:50;;;;;;;;;;;;;;;8.68;100.00;101400.22;5011027;28;19965;-34
2022/05/30 01:16:19;;;;;;;;;;;;;;;8.67;100.00;101413.28;5012811;28;19944;-38
2022/05/30 01:18:51;;;;;;;;;;;;;;;8.68;100.00;101400.22;5011670;28;19927;-33
2022/05/30 01:21:39;;;;;;;;;;;;;;;8.68;100.00;101397.44;5010997;28;19956;-36
2022/05/30 01:24:16;;;;;;;;;;;;;;;8.65;100.00;101398.81;5011584;28;19922;-34
2022/05/30 01:27:19;;;;;;;;;;;;;;;8.63;100.00;101398.25;5010804;28;20422;-34
2022/05/30 01:29:53;;;;;;;;;;;;;;;8.60;100.00;101407.97;5011627;28;20020;-39
2022/05/30 01:32:21;;;;;;;;;;;;;;;8.59;100.00;101397.16;5011643;28;20060;-34
2022/05/30 01:34:49;;;;;;;;;;;;;;;8.59;100.00;101405.50;5010540;28;19968;-30
2022/05/30 01:37:19;;;;;;;;;;;;;;;8.57;100.00;101400.19;5011411;28;19940;-35
2022/05/30 01:39:47;;;;;;;;;;;;;;;8.55;100.00;101396.84;5011209;28;19921;-34
2022/05/30 01:42:15;;;;;;;;;;;;;;;8.52;100.00;101408.50;5011905;28;19968;-36
2022/05/30 01:44:45;;;;;;;;;;;;;;;8.51;100.00;101395.72;5011328;28;19973;-30
2022/05/30 01:47:14;;;;;;;;;;;;;;;8.49;100.00;101392.38;5011164;28;19921;-33
2022/05/30 01:49:44;;;;;;;;;;;;;;;8.48;100.00;101393.47;5010099;28;20381;-36
2022/05/30 01:52:12;;;;;;;;;;;;;;;8.47;100.00;101394.59;5011233;28;19991;-37
2022/05/30 01:54:39;;;;;;;;;;;;;;;8.50;100.00;101385.69;5011081;28;19932;-33
2022/05/30 01:57:26;;;;;;;;;;;;;;;8.49;100.00;101395.16;5012292;28;19932;-31
2022/05/30 02:00:22;;;;;;;;;;;;;;;8.48;100.00;101393.47;5012270;28;20290;-33
2022/05/30 02:02:52;;;;;;;;;;;;;;;8.47;100.00;101394.59;5010091;28;20404;-31
2022/05/30 02:05:20;;;;;;;;;;;;;;;8.46;100.00;101394.84;5012214;28;19925;-33
2022/05/30 02:07:48;;;;;;;;;;;;;;;8.45;100.00;101390.41;5012046;28;20397;-34
2022/05/30 02:10:20;;;;;;;;;;;;;;;8.42;100.00;101391.78;5010159;28;20370;-32
2022/05/30 02:12:49;;;;;;;;;;;;;;;8.40;100.00;101391.19;5010986;28;19922;-31
2022/05/30 02:17:00;;;;;;;;;;;;;;;8.40;100.00;101388.41;5010925;28;19983;-35
2022/05/30 02:18:20;;;;;;;;;;;;;;;8.39;100.00;101381.22;5011352;28;20359;-36
2022/05/30 02:20:49;;;;;;;;;;;;;;;8.39;100.00;101385.94;5012034;28;19925;-29
2022/05/30 02:23:17;;;;;;;;;;;;;;;8.40;100.00;101388.41;5011184;28;20384;-33
2022/05/30 02:25:44;;;;;;;;;;;;;;;8.39;100.00;101380.38;5011721;28;19921;-33
2022/05/30 02:28:14;;;;;;;;;;;;;;;8.38;100.00;101379.53;5010756;28;20024;-33
2022/05/30 02:30:42;;;;;;;;;;;;;;;8.39;100.00;101375.66;5009582;28;20004;-33
2022/05/30 02:38:43;;;;;;;;;;;;;;;8.45;100.00;101382.06;5010998;28;19928;-33
2022/05/30 02:41:50;;;;;;;;;;;;;;;8.48;100.00;101371.22;4989406;28;19933;-34
2022/05/30 02:44:20;;;;;;;;;;;;;;;8.50;100.00;101384.88;4988538;28;19992;-34
2022/05/30 02:46:48;;;;;;;;;;;;;;;8.50;100.00;101382.91;4989908;28;19927;-32
2022/05/30 02:49:17;;;;;;;;;;;;;;;8.50;100.00;101382.91;5010269;28;19925;-32
2022/05/30 02:51:46;;;;;;;;;;;;;;;8.51;100.00;101372.63;5009777;28;20024;-37
2022/05/30 02:54:15;;;;;;;;;;;;;;;8.51;100.00;101372.63;5009978;28;20027;-34
2022/05/30 02:57:01;;;;;;;;;;;;;;;8.51;100.00;101378.19;5011805;28;20007;-35
2022/05/30 02:59:30;;;;;;;;;;;;;;;8.49;100.00;101375.69;5009274;28;20287;-38
2022/05/30 03:02:05;;;;;;;;;;;;;;;8.48;100.00;101382.34;5012176;28;19929;-37
2022/05/30 03:04:33;;;;;;;;;;;;;;;8.46;100.00;101370.66;5014053;28;19925;-30
2022/05/30 03:07:10;;;;;;;;;;;;;;;8.43;100.00;101376.75;5013486;28;19921;-32
2022/05/30 03:09:37;;;;;;;;;;;;;;;8.42;100.00;101377.03;5014233;28;20008;-35
2022/05/30 03:12:18;;;;;;;;;;;;;;;8.40;100.00;101376.47;5013901;28;20374;-34
2022/05/30 03:14:46;;;;;;;;;;;;;;;8.40;100.00;101377.31;5013844;28;19964;-32
2022/05/30 03:17:13;;;;;;;;;;;;;;;8.39;100.00;101378.44;5015529;28;19932;-32
2022/05/30 03:19:46;;;;;;;;;;;;;;;8.43;100.00;101387.03;5013221;28;19922;-31
2022/05/30 03:22:15;;;;;;;;;;;;;;;8.47;100.00;101374.28;5015066;28;19922;-30
2022/05/30 03:25:01;;;;;;;;;;;;;;;8.50;100.00;101371.78;5015125;28;19941;-34
2022/05/30 03:27:28;;;;;;;;;;;;;;;8.56;100.00;101370.72;5012925;28;20259;-33
2022/05/30 03:29:56;;;;;;;;;;;;;;;8.59;100.00;101372.09;5013625;28;19921;-32
2022/05/30 03:32:24;;;;;;;;;;;;;;;8.62;100.00;101375.16;5012637;28;19921;-30
2022/05/30 03:34:52;;;;;;;;;;;;;;;8.64;100.00;101367.38;5011616;28;19921;-34
2022/05/30 03:37:21;;;;;;;;;;;;;;;8.67;100.00;101371.56;5012340;28;19992;-35
2022/05/30 03:40:00;;;;;;;;;;;;;;;8.68;100.00;101361.25;5012850;28;20387;-35
2022/05/30 03:42:57;;;;;;;;;;;;;;;8.69;100.00;101360.16;5014033;28;19927;-30
2022/05/30 03:45:25;;;;;;;;;;;;;;;8.72;100.00;101365.19;5012949;28;19921;-38
2022/05/30 03:47:53;;;;;;;;;;;;;;;8.73;100.00;101372.41;5012391;28;19921;-31
2022/05/30 03:50:24;;;;;;;;;;;;;;;8.75;100.00;101359.06;5013088;28;20287;-34
2022/05/30 03:53:04;;;;;;;;;;;;;;;8.77;100.00;101365.19;5013564;28;20028;-29
2022/05/30 03:55:34;;;;;;;;;;;;;;;8.80;100.00;101359.06;5012626;28;19947;-33
2022/05/30 03:58:03;;;;;;;;;;;;;;;8.83;100.00;101361.28;5013192;28;19922;-38
2022/05/30 04:00:34;;;;;;;;;;;;;;;8.85;100.00;101367.41;5013120;28;20074;-31
2022/05/30 04:03:04;;;;;;;;;;;;;;;8.88;100.00;101361.31;5012267;28;19925;-40
2022/05/30 04:05:32;;;;;;;;;;;;;;;8.92;100.00;101356.88;5014160;28;20422;-33
2022/05/30 04:08:00;;;;;;;;;;;;;;;8.96;100.00;101353.28;5012868;28;20016;-35
2022/05/30 04:11:02;;;;;;;;;;;;;;;9.03;100.00;101352.13;5001776;28;19948;-32
2022/05/30 04:13:58;;;;;;;;;;;;;;;9.07;100.00;101348.53;5009223;28;19937;-36
2022/05/30 04:16:32;;;;;;;;;;;;;;;9.09;100.00;101349.09;5013616;28;20378;-33
2022/05/30 04:19:04;;;;;;;;;;;;;;;9.13;100.00;101347.44;5012561;28;20286;-32
2022/05/30 04:21:31;;;;;;;;;;;;;;;9.16;100.00;101351.59;5012574;28;19921;-31
2022/05/30 04:24:01;;;;;;;;;;;;;;;9.19;100.00;101351.88;5012077;28;20356;-38
2022/05/30 04:26:30;;;;;;;;;;;;;;;9.22;100.00;101347.69;5012602;28;19921;-34
2022/05/30 04:28:58;;;;;;;;;;;;;;;9.24;100.00;101351.88;5014060;28;19922;-29
2022/05/30 04:31:51;;;;;;;;;;;;;;;9.28;100.00;101347.44;5011922;28;20028;-36
2022/05/30 04:34:19;;;;;;;;;;;;;;;9.30;100.00;101342.41;5029044;28;19926;-32
2022/05/30 04:36:47;;;;;;;;;;;;;;;9.35;100.00;101346.31;5011744;28;19961;-29
2022/05/30 04:39:16;;;;;;;;;;;;;;;9.41;100.00;101345.19;5013724;28;19952;-32
2022/05/30 04:42:16;;;;;;;;;;;;;;;9.50;100.00;101352.72;5013420;28;19932;-38
2022/05/30 04:45:15;;;;;;;;;;;;;;;9.63;100.00;101357.69;5012693;28;19932;-37
2022/05/30 04:48:02;;;;;;;;;;;;;;;9.76;100.00;101358.25;5012216;28;20029;-35
2022/05/30 04:50:30;;;;;;;;;;;;;;;9.83;100.00;101361.56;5012178;28;20020;-34
2022/05/30 04:52:58;;;;;;;;;;;;;;;9.87;100.00;101354.31;5012530;28;19958;-35
2022/05/30 04:55:50;;;;;;;;;;;;;;;9.91;100.00;101355.41;5010059;28;19932;-37
2022/05/30 04:58:29;;;;;;;;;;;;;;;9.92;100.00;101348.72;5011479;28;19925;-32
2022/05/30 05:01:07;;;;;;;;;;;;;;;9.92;100.00;101349.56;5011577;28;19922;-32
2022/05/30 05:03:37;;;;;;;;;;;;;;;9.94;100.00;101352.91;5011630;28;19925;-35
2022/05/30 05:06:05;;;;;;;;;;;;;;;9.95;100.00;101353.75;5010469;28;19972;-35
2022/05/30 05:08:37;;;;;;;;;;;;;;;9.96;100.00;101359.03;5013004;28;19921;-32
2022/05/30 05:11:25;;;;;;;;;;;;;;;9.96;100.00;101350.69;5013175;28;19936;-37
2022/05/30 05:14:12;;;;;;;;;;;;;;;9.98;100.00;101355.97;5012711;28;19967;-39
2022/05/30 05:16:58;;;;;;;;;;;;;;;9.99;100.00;101355.66;5012788;28;19951;-31
2022/05/30 05:19:27;;;;;;;;;;;;;;;10.00;100.00;101350.91;5010804;28;19922;-27
2022/05/30 05:21:54;;;;;;;;;;;;;;;10.02;100.00;101354.25;5012851;28;20020;-31
2022/05/30 05:24:22;;;;;;;;;;;;;;;10.03;99.86;101351.19;5010382;28;19925;-31
2022/05/30 05:27:16;;;;;;;;;;;;;;;10.05;99.29;101352.88;5011778;28;19928;-34
2022/05/30 05:29:45;;;;;;;;;;;;;;;10.08;99.12;101357.88;5011260;28;20402;-28
2022/05/30 05:32:15;;;;;;;;;;;;;;;10.12;99.37;101359.81;5011134;28;19925;-33
2022/05/30 05:34:43;;;;;;;;;;;;;;;10.14;99.08;101362.34;5010435;28;19929;-32
2022/05/30 05:37:11;;;;;;;;;;;;;;;10.17;98.73;101362.59;5011060;28;19921;-37
2022/05/30 05:39:49;;;;;;;;;;;;;;;10.25;98.50;101375.13;5011450;28;20001;-29
2022/05/30 05:42:19;;;;;;;;;;;;;;;10.33;98.75;101374.56;5009454;28;20383;-34
2022/05/30 05:44:48;;;;;;;;;;;;;;;10.44;98.85;101372.53;5009819;28;19929;-32
2022/05/30 05:47:16;;;;;;;;;;;;;;;10.54;99.00;101376.13;5008535;28;20016;-29
2022/05/30 05:49:44;;;;;;;;;;;;;;;10.64;99.30;101375.25;5010361;28;19922;-34
2022/05/30 05:52:12;;;;;;;;;;;;;;;10.72;99.18;101379.41;5011345;28;20016;-33
2022/05/30 05:54:39;;;;;;;;;;;;;;;10.72;97.47;101383.03;5010339;28;19948;-34
2022/05/30 05:57:09;;;;;;;;;;;;;;;10.68;96.35;101388.34;5010029;28;20022;-35
2022/05/30 05:59:45;;;;;;;;;;;;;;;10.65;95.41;101385.28;5009500;28;19921;-30
2022/05/30 06:02:13;;;;;;;;;;;;;;;10.64;94.99;101381.66;5009148;28;20330;-34
2022/05/30 06:04:41;;;;;;;;;;;;;;;10.70;95.90;101390.84;5008822;28;19922;-32
2022/05/30 06:07:34;;;;;;;;;;;;;;;10.88;97.06;101389.34;5009411;28;20334;-34
2022/05/30 06:10:07;;;;;;;;;;;;;;;11.09;97.72;101390.88;5008936;28;19952;-34
2022/05/30 06:12:44;;;;;;;;;;;;;;;11.31;97.32;101393.25;5009679;28;20008;-34
2022/05/30 06:15:14;;;;;;;;;;;;;;;11.53;97.30;101385.25;5008498;28;20020;-27
2022/05/30 06:17:55;;;;;;;;;;;;;;;11.82;97.42;101392.81;5008892;28;19925;-34
2022/05/30 06:20:23;;;;;;;;;;;;;;;11.99;95.73;101388.44;5010397;28;20020;-37
2022/05/30 06:22:51;;;;;;;;;;;;;;;12.10;94.76;101391.16;5010212;28;19921;-30
2022/05/30 06:25:50;;;;;;;;;;;;;;;12.14;93.38;101389.44;5009342;28;19932;-31
2022/05/30 06:28:32;;;;;;;;;;;;;;;12.16;93.30;101392.75;5010707;28;19921;-36
2022/05/30 06:31:15;;;;;;;;;;;;;;;12.18;92.63;101391.34;5008409;28;20409;-34
2022/05/30 06:33:46;;;;;;;;;;;;;;;12.18;91.66;101398.91;5009310;28;19925;-32
2022/05/30 06:36:20;;;;;;;;;;;;;;;12.17;91.66;101392.47;5007792;28;19930;-34
2022/05/30 06:38:49;;;;;;;;;;;;;;;12.31;93.04;101395.38;5010541;28;19961;-37
2022/05/30 06:41:27;;;;;;;;;;;;;;;12.50;93.07;101396.25;5008977;28;20290;-33
2022/05/30 06:43:57;;;;;;;;;;;;;;;12.75;93.83;101393.13;5008530;28;19991;-34
2022/05/30 06:47:01;;;;;;;;;;;;;;;13.38;95.51;101392.78;4983071;28;20041;-33
2022/05/30 06:49:47;;;;;;;;;;;;;;;14.16;93.63;101393.94;5008593;28;19948;-31
2022/05/30 06:52:16;;;;;;;;;;;;;;;14.83;90.10;101397.88;5008149;28;20063;-30
2022/05/30 06:54:44;;;;;;;;;;;;;;;15.60;89.92;101390.47;5008228;28;19921;-34
2022/05/30 06:59:57;;;;;;;;;;;;;;;16.96;76.61;101393.44;5024946;28;19925;-35
2022/05/30 07:02:27;;;;;;;;;;;;;;;16.94;70.71;101390.09;5007747;28;19926;-33
2022/05/30 07:05:13;;;;;;;;;;;;;;;16.73;66.35;101396.38;5009120;28;19947;-40
2022/05/30 07:08:00;;;;;;;;;;;;;;;16.49;65.78;101390.28;5009949;28;19932;-39
2022/05/30 07:10:46;;;;;;;;;;;;;;;16.25;64.91;101395.47;5009678;28;20321;-38
2022/05/30 07:13:16;;;;;;;;;;;;;;;16.15;66.35;101399.44;5008130;28;19926;-33
2022/05/30 07:15:48;;;;;;;;;;;;;;;16.62;70.07;101394.97;5008435;28;20359;-33
2022/05/30 07:18:23;;;;;;;;;;;;;;;17.31;66.23;101399.91;5008603;28;19925;-39
2022/05/30 07:20:57;;;;;;;;;;;;;;;17.48;61.46;101392.28;5006568;28;20379;-37
2022/05/30 07:23:28;;;;;;;;;;;;;;;17.68;62.63;101393.63;5010460;28;19928;-32
2022/05/30 07:26:16;;;;;;;;;;;;;;;18.12;60.62;101392.34;5009289;28;20478;-36
2022/05/30 07:29:03;;;;;;;;;;;;;;;18.50;59.17;101398.03;5009995;28;19948;-35
2022/05/30 07:31:49;;;;;;;;;;;;;;;18.83;58.21;101405.84;5009198;28;19952;-32
2022/05/30 07:34:37;;;;;;;;;;;;;;;19.06;55.79;101403.53;5009667;28;19928;-35
2022/05/30 07:37:23;;;;;;;;;;;;;;;19.05;55.57;101404.72;5010128;28;20015;-39
2022/05/30 07:40:04;;;;;;;;;;;;;;;19.15;54.14;101399.50;5007645;28;20267;-33
2022/05/30 07:42:52;;;;;;;;;;;;;;;19.23;54.63;101401.41;5009901;28;20594;-35
2022/05/30 07:45:49;;;;;;;;;;;;;;;19.39;52.18;101389.47;5004972;28;19928;-32
2022/05/30 07:48:28;;;;;;;;;;;;;;;19.58;52.74;101399.13;5011918;28;19932;-34
2022/05/30 07:51:15;;;;;;;;;;;;;;;19.98;51.57;101390.09;5011448;28;20542;-35
2022/05/30 07:53:52;;;;;;;;;;;;;;;20.08;50.12;101395.31;5013290;28;20298;-36
2022/05/30 07:56:42;;;;;;;;;;;;;;;20.46;52.17;101406.38;5013926;28;19932;-38
2022/05/30 07:59:10;;;;;;;;;;;;;;;21.06;47.65;101398.22;5012498;28;19983;-35
2022/05/30 08:01:38;;;;;;;;;;;;;;;21.70;50.01;101397.34;5013155;28;19929;-35
2022/05/30 08:04:12;;;;;;;;;;;;;;;22.43;49.17;101394.09;5012901;28;19928;-38
2022/05/30 08:07:01;;;;;;;;;;;;;;;22.87;43.86;101398.50;5012331;28;19984;-34
2022/05/30 08:09:47;;;;;;;;;;;;;;;22.75;42.61;101407.13;5013543;28;20011;-33
2022/05/30 08:12:17;;;;;;;;;;;;;;;22.53;42.41;101404.94;5012933;28;19921;-36
2022/05/30 08:14:56;;;;;;;;;;;;;;;22.68;43.97;101410.59;5013066;28;20008;-36
2022/05/30 08:17:33;;;;;;;;;;;;;;;23.07;44.56;101409.94;5011799;28;20367;-34
2022/05/30 08:20:02;;;;;;;;;;;;;;;23.47;42.83;101407.59;5013919;28;19952;-38
2022/05/30 08:22:36;;;;;;;;;;;;;;;23.96;41.65;101412.72;5011870;28;19921;-35
2022/05/30 08:25:05;;;;;;;;;;;;;;;23.97;39.41;101408.69;5013854;28;20357;-33
2022/05/30 08:27:33;;;;;;;;;;;;;;;23.68;38.51;101408.09;5012069;28;19925;-32
2022/05/30 08:30:04;;;;;;;;;;;;;;;23.79;41.01;101407.47;4990404;28;19929;-31
2022/05/30 08:32:36;;;;;;;;;;;;;;;24.09;39.22;101405.66;4991547;28;20383;-34
2022/05/30 08:35:23;;;;;;;;;;;;;;;24.23;38.71;101411.59;4993691;28;19929;-30
2022/05/30 08:37:55;;;;;;;;;;;;;;;24.31;37.19;101410.56;4991688;28;20016;-34
2022/05/30 08:43:17;;;;;;;;;;;;;;;24.85;39.58;101422.91;4992275;28;19975;-38
2022/05/30 08:45:55;;;;;;;;;;;;;;;25.22;37.93;101420.25;4992683;28;19921;-32
2022/05/30 08:48:37;;;;;;;;;;;;;;;25.60;38.06;101422.81;4992844;28;20299;-33
2022/05/30 08:51:14;;;;;;;;;;;;;;;25.89;35.24;101426.91;4992019;28;20295;-39
2022/05/30 08:53:54;;;;;;;;;;;;;;;26.05;35.70;101427.50;4992600;28;19928;-30
2022/05/30 08:56:24;;;;;;;;;;;;;;;26.27;34.96;101419.97;4993880;28;19958;-32
2022/05/30 08:59:24;;;;;;;;;;;;;;;26.63;35.10;101417.47;4992513;28;20016;-33
2022/05/30 09:01:55;;;;;;;;;;;;;;;26.86;33.02;101415.22;4992499;28;19964;-36
2022/05/30 09:04:41;;;;;;;;;;;;;;;26.96;33.00;101420.25;4991605;28;19949;-34
2022/05/30 09:07:10;;;;;;;;;;;;;;;27.20;33.23;101420.81;4992211;28;19949;-36
2022/05/30 09:09:43;;;;;;;;;;;;;;;27.33;33.17;101422.13;4993654;28;19955;-31
2022/05/30 09:12:22;;;;;;;;;;;;;;;27.53;33.74;101422.66;4992816;28;19921;-38
2022/05/30 09:15:07;;;;;;;;;;;;;;;27.72;32.65;101428.91;4992197;28;19922;-33
2022/05/30 09:17:38;;;;;;;;;;;;;;;27.74;31.97;101437.13;4991770;28;19928;-31
2022/05/30 09:20:07;;;;;;;;;;;;;;;27.67;30.44;101429.31;4992914;28;19968;-29
2022/05/30 09:22:36;;;;;;;;;;;;;;;27.46;31.04;101423.44;4993249;28;19921;-31
2022/05/30 09:28:03;;;;;;;;;;;;;;;26.80;33.44;101422.53;4991927;28;19968;-30
2022/05/30 09:30:53;;;;;;;;;;;;;;;26.94;32.89;101416.97;4993181;28;19928;-30
2022/05/30 09:33:50;;;;;;;;;;;;;;;27.06;34.01;101419.50;4992253;28;19993;-30
2022/05/30 09:36:51;;;;;;;;;;;;;;;27.07;32.74;101429.75;4992785;28;20049;-38
2022/05/30 09:39:42;;;;;;;;;;;;;;;27.10;33.07;101419.53;4990969;28;20012;-37
2022/05/30 09:42:22;;;;;;;;;;;;;;;27.20;31.98;101423.66;4991678;28;19929;-36
2022/05/30 09:44:52;;;;;;;;;;;;;;;27.08;32.98;101416.22;4991763;28;20024;-32
2022/05/30 09:47:57;;;;;;;;;;;;;;;27.31;33.72;101433.19;4991823;28;19925;-37
2022/05/30 09:50:30;;;;;;;;;;;;;;;27.32;33.51;101426.22;4992799;28;20018;-30
2022/05/30 09:52:59;;;;;;;;;;;;;;;27.32;29.73;101421.31;4991058;28;19972;-31
2022/05/30 09:55:33;;;;;;;;;;;;;;;27.30;30.68;101423.75;4990758;28;19928;-36
2022/05/30 09:58:09;;;;;;;;;;;;;;;26.86;31.68;101423.81;4991375;28;19926;-30
2022/05/30 10:01:06;;;;;;;;;;;;;;;26.51;33.48;101426.38;4990440;28;19922;-30
2022/05/30 10:03:37;;;;;;;;;;;;;;;26.65;33.32;101432.22;4991292;28;19925;-29
2022/05/30 10:06:36;;;;;;;;;;;;;;;26.95;33.18;101421.47;4992491;28;19929;-33
2022/05/30 10:09:21;;;;;;;;;;;;;;;27.25;32.52;101427.00;4990402;28;19984;-38
2022/05/30 10:11:53;;;;;;;;;;;;;;;27.40;32.46;101433.63;4990828;28;20036;-31
2022/05/30 10:14:24;;;;;;;;;;;;;;;27.54;32.11;101430.03;4990473;28;20460;-42
2022/05/30 10:17:11;;;;;;;;;;;;;;;27.21;32.56;101436.78;4990932;28;19944;-33
2022/05/30 10:19:41;;;;;;;;;;;;;;;27.07;30.53;101432.59;4990863;28;19929;-30
2022/05/30 10:28:46;;;;;;;;;;;;;;;26.84;33.52;101442.63;4986450;28;20266;-35
2022/05/30 10:31:47;;;;;;;;;;;;;;;27.20;32.97;101440.88;4989093;28;19968;-32
2022/05/30 10:34:40;;;;;;;;;;;;;;;27.49;31.21;101436.16;4990421;28;19960;-32
2022/05/30 10:37:24;;;;;;;;;;;;;;;27.57;28.92;101432.97;4990041;28;19921;-33
2022/05/30 10:40:08;;;;;;;;;;;;;;;27.32;29.84;101438.50;4989059;28;19926;-34
2022/05/30 10:42:43;;;;;;;;;;;;;;;27.07;32.00;101435.47;4989128;28;19926;-35
2022/05/30 10:45:13;;;;;;;;;;;;;;;27.02;33.95;101440.75;4991060;28;19975;-35
2022/05/30 10:47:46;;;;;;;;;;;;;;;27.06;32.12;101439.56;4989521;28;19922;-33
2022/05/30 10:50:19;;;;;;;;;;;;;;;27.09;32.77;101444.50;4988788;28;19921;-33
2022/05/30 10:52:50;;;;;;;;;;;;;;;27.17;32.14;101435.97;4983940;28;20319;-33
2022/05/30 10:55:25;;;;;;;;;;;;;;;27.33;32.52;101445.06;4988938;28;20709;-33
2022/05/30 10:57:56;;;;;;;;;;;;;;;27.34;32.55;101446.72;4988679;28;20399;-31
2022/05/30 11:00:26;;;;;;;;;;;;;;;27.25;31.74;101447.06;4989316;28;19922;-40
2022/05/30 11:03:04;;;;;;;;;;;;;;;27.14;33.61;101448.22;4989128;28;19925;-32
2022/05/30 11:05:39;;;;;;;;;;;;;;;27.14;32.19;101439.63;4988400;28;19932;-34
2022/05/30 11:08:19;;;;;;;;;;;;;;;27.09;31.75;101444.50;4989344;28;19926;-31
2022/05/30 11:10:50;;;;;;;;;;;;;;;27.01;32.83;101445.66;4988480;28;20284;-31
2022/05/30 11:13:37;;;;;;;;;;;;;;;27.02;33.15;101441.56;4990313;28;20019;-31
2022/05/30 11:16:37;;;;;;;;;;;;;;;27.17;31.87;101448.25;4970644;28;19974;-40
2022/05/30 11:19:28;;;;;;;;;;;;;;;27.38;32.84;101453.25;4988989;28;20279;-32
2022/05/30 11:22:19;;;;;;;;;;;;;;;27.59;31.84;101447.69;4990986;28;19933;-32
2022/05/30 11:24:48;;;;;;;;;;;;;;;27.37;32.29;101454.50;4993617;28;20378;-32
2022/05/30 11:27:23;;;;;;;;;;;;;;;27.05;33.05;101455.09;4994441;28;19926;-32
2022/05/30 11:29:56;;;;;;;;;;;;;;;26.77;32.37;101457.72;4994440;28;19948;-35
2022/05/30 11:32:35;;;;;;;;;;;;;;;26.74;33.80;101456.47;4993784;28;19925;-31
2022/05/30 11:35:08;;;;;;;;;;;;;;;26.86;33.97;101461.06;4993910;28;20434;-31
2022/05/30 11:37:55;;;;;;;;;;;;;;;26.95;32.02;101455.84;4994342;28;19937;-34
2022/05/30 11:40:28;;;;;;;;;;;;;;;26.97;32.21;101459.16;4993372;28;20004;-39
2022/05/30 11:43:16;;;;;;;;;;;;;;;27.02;32.11;101455.88;4994116;28;19929;-34
2022/05/30 11:45:51;;;;;;;;;;;;;;;27.09;31.51;101463.72;4993164;28;20043;-34
2022/05/30 11:48:26;;;;;;;;;;;;;;;27.09;32.04;101455.94;4992697;28;19944;-40
2022/05/30 11:51:03;;;;;;;;;;;;;;;27.13;32.01;101452.28;4993440;28;19928;-31
2022/05/30 11:53:45;;;;;;;;;;;;;;;27.08;31.31;101462.91;4992268;28;19977;-35
2022/05/30 11:56:17;;;;;;;;;;;;;;;27.15;31.60;101465.00;4993863;28;19932;-31
2022/05/30 11:58:56;;;;;;;;;;;;;;;27.00;31.54;101455.47;4994148;28;20284;-31
2022/05/30 12:01:26;;;;;;;;;;;;;;;26.99;32.84;101456.69;4993034;28;20399;-35
2022/05/30 12:04:10;;;;;;;;;;;;;;;27.09;32.58;101458.81;4992560;28;19956;-30
2022/05/30 12:06:52;;;;;;;;;;;;;;;27.01;33.53;101459.16;4985623;28;19928;-33
2022/05/30 12:09:29;;;;;;;;;;;;;;;26.75;30.14;101455.25;4992616;28;20009;-32
2022/05/30 12:12:11;;;;;;;;;;;;;;;26.42;30.84;101473.31;4994712;28;19922;-40
2022/05/30 12:14:59;;;;;;;;;;;;;;;26.21;32.87;101466.50;4993802;28;19922;-32
2022/05/30 12:17:37;;;;;;;;;;;;;;;26.31;34.47;101463.81;4991476;28;19928;-33
2022/05/30 12:25:46;;;;;;;;;;;;;;;26.56;34.22;101475.50;4994460;28;19926;-30
2022/05/30 12:28:41;;;;;;;;;;;;;;;26.80;32.50;101476.94;4993591;28;19925;-35
2022/05/30 12:31:09;;;;;;;;;;;;;;;26.69;32.08;101470.31;4970441;28;19922;-34
2022/05/30 12:33:45;;;;;;;;;;;;;;;26.53;30.47;101469.75;4992089;28;20347;-36
2022/05/30 12:36:32;;;;;;;;;;;;;;;26.51;32.35;101473.00;4993311;28;19961;-32
2022/05/30 12:39:01;;;;;;;;;;;;;;;26.62;31.48;101475.94;4994427;28;19925;-32
2022/05/30 12:41:31;;;;;;;;;;;;;;;26.66;31.49;101479.69;4993959;28;20419;-32
2022/05/30 12:43:58;;;;;;;;;;;;;;;26.68;31.95;101463.75;4993494;28;19922;-31
2022/05/30 12:46:28;;;;;;;;;;;;;;;26.76;32.06;101473.25;4993087;28;19926;-37
2022/05/30 12:49:04;;;;;;;;;;;;;;;26.82;30.69;101468.78;4993097;28;19922;-32
2022/05/30 12:51:40;;;;;;;;;;;;;;;26.82;32.58;101465.09;4993033;28;19929;-33
2022/05/30 12:54:31;;;;;;;;;;;;;;;26.80;32.49;101462.63;4992879;28;19921;-31
2022/05/30 12:57:11;;;;;;;;;;;;;;;26.63;32.10;101478.44;4992435;28;20295;-36
2022/05/30 13:00:00;;;;;;;;;;;;;;;26.51;33.47;101466.44;4993164;28;20342;-34
2022/05/30 13:02:44;;;;;;;;;;;;;;;26.45;31.44;101474.56;4992734;28;19926;-33
2022/05/30 13:05:18;;;;;;;;;;;;;;;26.42;32.31;101466.75;4992096;28;20036;-34
2022/05/30 13:07:45;;;;;;;;;;;;;;;26.48;32.27;101467.22;4991538;28;19926;-32
2022/05/30 13:10:13;;;;;;;;;;;;;;;26.43;32.10;101472.09;4992529;28;19922;-36
2022/05/30 13:12:53;;;;;;;;;;;;;;;25.99;33.48;101471.13;4992663;28;19922;-35
2022/05/30 13:15:24;;;;;;;;;;;;;;;25.79;32.98;101458.22;4992947;28;19976;-34
2022/05/30 13:17:54;;;;;;;;;;;;;;;25.65;34.02;101464.56;4991671;28;20334;-41
2022/05/30 13:20:24;;;;;;;;;;;;;;;25.43;34.03;101457.69;4992439;28;20001;-34
2022/05/30 13:22:53;;;;;;;;;;;;;;;25.30;34.64;101467.72;4992711;28;19993;-35
2022/05/30 13:25:24;;;;;;;;;;;;;;;25.26;34.70;101459.09;4991779;28;19922;-32
2022/05/30 13:27:53;;;;;;;;;;;;;;;25.13;34.56;101466.25;4992265;28;19922;-32
2022/05/30 13:30:22;;;;;;;;;;;;;;;25.06;32.74;101466.94;4992464;28;19922;-38
2022/05/30 13:32:51;;;;;;;;;;;;;;;25.16;33.77;101459.78;4991549;28;19938;-41
2022/05/30 13:35:19;;;;;;;;;;;;;;;25.17;34.88;101464.28;4991940;28;19922;-37
2022/05/30 13:37:49;;;;;;;;;;;;;;;25.17;34.89;101457.72;4991973;28;20040;-34
2022/05/30 13:40:17;;;;;;;;;;;;;;;25.16;34.32;101461.81;4991646;28;20375;-32
2022/05/30 13:42:49;;;;;;;;;;;;;;;25.14;34.60;101458.50;4992224;28;19936;-40
2022/05/30 13:45:23;;;;;;;;;;;;;;;25.05;33.49;101461.63;4991375;28;19922;-39
2022/05/30 13:48:01;;;;;;;;;;;;;;;24.87;33.92;101461.28;4991930;28;20009;-39
2022/05/30 13:50:50;;;;;;;;;;;;;;;24.51;34.37;101462.69;4991658;28;19925;-31